createdAt,value
2018-12-19T00:02:24.855Z,-1.80
2018-12-19T00:04:53.122Z,-1.70
2018-12-19T00:07:21.346Z,-1.80
2018-12-19T00:09:49.541Z,-1.80
2018-12-19T00:12:17.747Z,-1.80
2018-12-19T00:14:45.953Z,-1.80
2018-12-19T00:17:14.183Z,-1.90
2018-12-19T00:19:42.405Z,-1.90
2018-12-19T00:22:10.584Z,-1.90
2018-12-19T00:24:38.870Z,-2.00
2018-12-19T00:27:07.127Z,-2.00
2018-12-19T00:29:35.311Z,-2.00
2018-12-19T00:32:03.656Z,-2.00
2018-12-19T00:34:31.900Z,-2.00
2018-12-19T00:37:00.099Z,-2.20
2018-12-19T00:39:28.304Z,-2.10
2018-12-19T00:41:56.535Z,-2.20
2018-12-19T00:44:24.736Z,-2.40
2018-12-19T00:46:52.989Z,-2.30
2018-12-19T00:49:21.295Z,-2.40
2018-12-19T00:56:45.397Z,-2.20
2018-12-19T00:59:13.646Z,-2.20
2018-12-19T01:01:41.887Z,-2.20
2018-12-19T01:04:10.143Z,-2.30
2018-12-19T01:06:38.462Z,-2.30
2018-12-19T01:09:07.648Z,-2.20
2018-12-19T01:11:35.862Z,-2.10
2018-12-19T01:14:04.060Z,-2.20
2018-12-19T01:16:32.360Z,-2.20
2018-12-19T01:19:00.645Z,-2.20
2018-12-19T01:21:28.851Z,-2.30
2018-12-19T01:23:57.131Z,-2.30
2018-12-19T01:26:25.318Z,-2.40
2018-12-19T01:28:53.498Z,-2.40
2018-12-19T01:31:21.718Z,-2.40
2018-12-19T01:33:49.899Z,-2.40
2018-12-19T01:36:18.228Z,-1.80
2018-12-19T01:38:46.467Z,-2.40
2018-12-19T01:41:14.711Z,-2.40
2018-12-19T01:43:42.887Z,-2.40
2018-12-19T01:46:11.176Z,-2.40
2018-12-19T01:51:07.546Z,-2.30
2018-12-19T01:53:35.724Z,-2.40
2018-12-19T01:56:04.009Z,-2.30
2018-12-19T01:58:32.215Z,-2.30
2018-12-19T02:01:00.393Z,-2.20
2018-12-19T02:03:28.615Z,-2.10
2018-12-19T02:05:56.838Z,-2.20
2018-12-19T02:08:25.144Z,-2.20
2018-12-19T02:10:53.416Z,-2.20
2018-12-19T02:13:21.623Z,-2.20
2018-12-19T02:15:49.847Z,-2.20
2018-12-19T02:18:18.122Z,-2.10
2018-12-19T02:20:46.343Z,-2.20
2018-12-19T02:23:14.539Z,-2.30
2018-12-19T02:25:42.765Z,-2.40
2018-12-19T02:28:10.979Z,-2.50
2018-12-19T02:30:39.236Z,-2.60
2018-12-19T02:33:07.508Z,-2.70
2018-12-19T02:35:35.692Z,-2.80
2018-12-19T02:38:03.927Z,-2.80
2018-12-19T02:40:32.128Z,-2.80
2018-12-19T02:43:00.402Z,-2.70
2018-12-19T02:50:24.712Z,-2.90
2018-12-19T02:52:52.896Z,-2.70
2018-12-19T02:55:21.081Z,-2.50
2018-12-19T02:57:49.326Z,-2.20
2018-12-19T03:00:17.620Z,-2.00
2018-12-19T03:02:45.881Z,-2.00
2018-12-19T03:05:14.078Z,-1.90
2018-12-19T03:07:42.246Z,-1.80
2018-12-19T03:10:10.504Z,-1.60
2018-12-19T03:12:38.681Z,-1.60
2018-12-19T03:15:06.876Z,-1.60
2018-12-19T03:17:35.137Z,-1.50
2018-12-19T03:20:03.319Z,-1.50
2018-12-19T03:22:31.521Z,-1.40
2018-12-19T03:24:59.774Z,-1.40
2018-12-19T03:27:27.987Z,-1.40
2018-12-19T03:29:56.239Z,-1.40
2018-12-19T03:32:24.512Z,-1.60
2018-12-19T03:34:52.752Z,-0.70
2018-12-19T03:37:21.003Z,-1.40
2018-12-19T03:44:46.752Z,-1.90
2018-12-19T03:47:14.934Z,-1.50
2018-12-19T03:49:43.466Z,-1.30
2018-12-19T03:52:11.714Z,-1.30
2018-12-19T03:54:40.035Z,-1.30
2018-12-19T03:57:09.680Z,-1.20
2018-12-19T03:59:38.893Z,-1.10
2018-12-19T04:02:07.086Z,-1.20
2018-12-19T04:04:35.276Z,-1.10
2018-12-19T04:07:03.493Z,-1.20
2018-12-19T04:09:31.688Z,-1.20
2018-12-19T04:11:59.872Z,-1.10
2018-12-19T04:16:57.059Z,-1.00
2018-12-19T04:19:25.240Z,-1.00
2018-12-19T04:21:53.572Z,-1.10
2018-12-19T04:24:21.899Z,-1.10
2018-12-19T04:26:50.121Z,-1.10
2018-12-19T04:29:18.352Z,-1.00
2018-12-19T04:31:46.595Z,-1.10
2018-12-19T04:34:15.883Z,-1.00
2018-12-19T04:36:44.126Z,-1.00
2018-12-19T04:39:12.295Z,-1.00
2018-12-19T04:49:04.525Z,-0.80
2018-12-19T04:51:32.788Z,-0.70
2018-12-19T04:54:01.090Z,-0.60
2018-12-19T04:56:29.312Z,-0.70
2018-12-19T04:58:57.544Z,-0.50
2018-12-19T05:01:25.792Z,-0.50
2018-12-19T05:03:54.075Z,-0.40
2018-12-19T05:06:22.467Z,0.00
2018-12-19T05:08:50.649Z,-0.20
2018-12-19T05:11:18.819Z,-0.20
2018-12-19T05:13:47.067Z,-0.20
2018-12-19T05:16:15.291Z,-0.10
2018-12-19T05:18:43.472Z,-0.10
2018-12-19T05:21:11.684Z,-0.10
2018-12-19T05:23:39.848Z,0.00
2018-12-19T05:26:08.070Z,0.10
2018-12-19T05:28:36.355Z,0.20
2018-12-19T05:31:04.519Z,0.20
2018-12-19T05:33:32.738Z,0.10
2018-12-19T05:40:56.859Z,0.50
2018-12-19T05:43:25.034Z,0.30
2018-12-19T05:45:53.358Z,0.30
2018-12-19T05:48:21.574Z,0.50
2018-12-19T05:50:49.814Z,0.30
2018-12-19T05:53:18.035Z,0.40
2018-12-19T05:55:46.256Z,0.30
2018-12-19T05:58:14.490Z,0.30
2018-12-19T06:00:42.680Z,0.40
2018-12-19T06:03:11.692Z,0.40
2018-12-19T06:05:39.892Z,0.30
2018-12-19T06:08:08.086Z,0.20
2018-12-19T06:10:36.288Z,0.20
2018-12-19T06:13:04.472Z,0.20
2018-12-19T06:15:32.751Z,0.20
2018-12-19T06:18:00.931Z,0.30
2018-12-19T06:20:29.134Z,0.30
2018-12-19T06:22:57.355Z,0.40
2018-12-19T06:25:25.632Z,0.40
2018-12-19T06:27:53.928Z,0.60
2018-12-19T06:30:22.483Z,0.40
2018-12-19T06:32:50.746Z,0.60
2018-12-19T06:35:18.936Z,0.60
2018-12-19T06:42:43.081Z,0.40
2018-12-19T06:45:11.278Z,0.40
2018-12-19T06:47:39.467Z,0.50
2018-12-19T06:50:09.057Z,0.50
2018-12-19T06:52:37.419Z,0.50
2018-12-19T06:55:06.022Z,0.50
2018-12-19T06:57:34.194Z,0.50
2018-12-19T07:00:02.416Z,0.50
2018-12-19T07:02:30.685Z,0.50
2018-12-19T07:04:58.991Z,0.50
2018-12-19T07:07:27.257Z,0.50
2018-12-19T07:09:55.445Z,0.50
2018-12-19T07:12:23.624Z,0.60
2018-12-19T07:14:51.908Z,0.60
2018-12-19T07:17:20.135Z,0.60
2018-12-19T07:19:48.336Z,0.70
2018-12-19T07:22:16.654Z,0.70
2018-12-19T07:24:44.828Z,0.70
2018-12-19T07:27:13.028Z,0.70
2018-12-19T07:29:41.240Z,0.70
2018-12-19T07:32:09.512Z,0.70
2018-12-19T07:34:44.044Z,0.90
2018-12-19T07:44:31.804Z,0.90
2018-12-19T07:47:00.000Z,0.90
2018-12-19T07:49:28.252Z,1.00
2018-12-19T07:51:56.435Z,1.00
2018-12-19T07:54:24.650Z,1.00
2018-12-19T07:56:52.868Z,1.10
2018-12-19T07:59:21.099Z,1.20
2018-12-19T08:01:49.277Z,1.30
2018-12-19T08:04:17.732Z,1.30
2018-12-19T08:06:45.958Z,1.40
2018-12-19T08:09:14.149Z,1.50
2018-12-19T08:11:42.344Z,1.60
2018-12-19T08:14:10.578Z,1.60
2018-12-19T08:16:38.811Z,1.60
2018-12-19T08:19:07.002Z,1.50
2018-12-19T08:21:35.224Z,1.60
2018-12-19T08:24:03.420Z,1.60
2018-12-19T08:26:31.604Z,1.60
2018-12-19T08:28:59.906Z,1.70
2018-12-19T08:31:28.332Z,1.40
2018-12-19T08:33:56.560Z,1.70
2018-12-19T08:43:48.677Z,1.80
2018-12-19T08:46:16.867Z,1.90
2018-12-19T08:48:45.170Z,2.00
2018-12-19T08:51:13.358Z,2.10
2018-12-19T08:53:41.573Z,2.10
2018-12-19T08:56:09.859Z,2.20
2018-12-19T08:58:38.039Z,2.20
2018-12-19T09:01:06.249Z,2.30
2018-12-19T09:03:34.618Z,2.30
2018-12-19T09:06:02.857Z,2.40
2018-12-19T09:08:31.060Z,2.50
2018-12-19T09:11:05.413Z,2.60
2018-12-19T09:13:29.585Z,2.60
2018-12-19T09:15:58.199Z,2.60
2018-12-19T09:18:26.400Z,2.60
2018-12-19T09:20:54.730Z,2.70
2018-12-19T09:23:22.984Z,2.70
2018-12-19T09:25:51.187Z,2.80
2018-12-19T09:28:19.388Z,2.90
2018-12-19T09:30:47.691Z,3.00
2018-12-19T09:33:15.912Z,2.90
2018-12-19T09:38:12.052Z,3.00
2018-12-19T09:40:40.314Z,3.00
2018-12-19T09:43:08.535Z,2.90
2018-12-19T09:45:36.714Z,3.00
2018-12-19T09:48:04.989Z,3.00
2018-12-19T09:50:33.270Z,3.10
2018-12-19T09:53:01.465Z,3.20
2018-12-19T09:55:29.660Z,3.20
2018-12-19T09:57:57.923Z,3.20
2018-12-19T10:00:28.480Z,3.30
2018-12-19T10:02:56.734Z,3.30
2018-12-19T10:05:25.495Z,3.40
2018-12-19T10:07:53.814Z,3.40
2018-12-19T10:10:21.999Z,3.50
2018-12-19T10:12:50.188Z,3.50
2018-12-19T10:15:18.479Z,3.60
2018-12-19T10:17:46.672Z,3.60
2018-12-19T10:20:14.865Z,3.70
2018-12-19T10:22:43.051Z,3.70
2018-12-19T10:25:14.165Z,3.80
2018-12-19T10:27:42.440Z,3.80
2018-12-19T10:30:12.376Z,4.10
2018-12-19T10:32:40.890Z,4.00
2018-12-19T10:35:10.464Z,4.00
2018-12-19T10:37:38.699Z,4.00
2018-12-19T10:40:11.011Z,4.00
2018-12-19T10:45:09.195Z,4.00
2018-12-19T10:47:37.423Z,4.10
2018-12-19T10:50:08.138Z,4.10
2018-12-19T10:52:36.338Z,4.10
2018-12-19T10:55:05.679Z,4.20
2018-12-19T10:57:33.889Z,4.20
2018-12-19T11:00:02.078Z,4.20
2018-12-19T11:02:30.361Z,4.20
2018-12-19T11:04:58.653Z,4.30
2018-12-19T11:07:26.847Z,4.30
2018-12-19T11:09:55.135Z,4.30
2018-12-19T11:12:23.351Z,4.30
2018-12-19T11:14:51.537Z,4.20
2018-12-19T11:17:19.727Z,4.30
2018-12-19T11:19:48.012Z,4.20
2018-12-19T11:22:16.205Z,4.20
2018-12-19T11:24:44.406Z,4.20
2018-12-19T11:27:12.658Z,4.20
2018-12-19T11:29:40.856Z,4.30
2018-12-19T11:32:09.036Z,4.30
2018-12-19T11:34:37.268Z,4.50
2018-12-19T11:37:05.476Z,4.40
2018-12-19T11:46:57.704Z,3.90
2018-12-19T11:49:25.905Z,4.60
2018-12-19T11:51:54.180Z,4.60
2018-12-19T11:54:22.421Z,4.60
2018-12-19T11:56:50.652Z,4.70
2018-12-19T11:59:18.880Z,4.70
2018-12-19T12:04:21.778Z,4.90
2018-12-19T12:06:50.068Z,4.90
2018-12-19T12:09:18.253Z,5.00
2018-12-19T12:11:46.502Z,5.00
2018-12-19T12:14:14.684Z,5.10
2018-12-19T12:16:42.959Z,5.10
2018-12-19T12:19:11.135Z,5.10
2018-12-19T12:21:39.316Z,5.30
2018-12-19T12:24:07.542Z,5.30
2018-12-19T12:26:35.711Z,5.30
2018-12-19T12:29:03.892Z,5.30
2018-12-19T12:31:32.134Z,5.40
2018-12-19T12:34:00.323Z,5.40
2018-12-19T12:36:28.529Z,5.40
2018-12-19T12:38:56.720Z,5.50
2018-12-19T12:41:24.909Z,5.60
2018-12-19T12:43:53.119Z,5.50
2018-12-19T12:46:21.310Z,5.10
2018-12-19T12:48:49.516Z,5.50
2018-12-19T12:51:17.791Z,5.60
2018-12-19T12:53:52.411Z,5.60
2018-12-19T12:56:20.597Z,5.60
2018-12-19T12:58:48.971Z,5.60
2018-12-19T13:01:17.160Z,5.70
2018-12-19T13:03:45.378Z,5.80
2018-12-19T13:06:13.604Z,5.80
2018-12-19T13:08:41.788Z,5.80
2018-12-19T13:11:09.969Z,5.90
2018-12-19T13:13:38.160Z,6.00
2018-12-19T13:16:06.338Z,6.00
2018-12-19T13:18:34.547Z,6.00
2018-12-19T13:21:02.831Z,6.00
2018-12-19T13:23:31.020Z,6.00
2018-12-19T13:25:59.283Z,6.00
2018-12-19T13:28:27.528Z,6.00
2018-12-19T13:30:55.704Z,6.00
2018-12-19T13:33:23.964Z,6.00
2018-12-19T13:35:52.153Z,6.00
2018-12-19T13:38:20.368Z,6.00
2018-12-19T13:40:48.549Z,5.90
2018-12-19T13:43:16.858Z,6.00
2018-12-19T13:45:45.074Z,5.80
2018-12-19T13:53:09.139Z,6.00
2018-12-19T13:55:37.310Z,5.90
2018-12-19T13:58:07.188Z,5.90
2018-12-19T14:00:35.693Z,5.90
2018-12-19T14:03:03.914Z,5.90
2018-12-19T14:05:32.232Z,5.90
2018-12-19T14:08:00.420Z,5.90
2018-12-19T14:10:28.646Z,6.00
2018-12-19T14:12:56.947Z,6.00
2018-12-19T14:15:25.123Z,5.90
2018-12-19T14:17:53.309Z,5.90
2018-12-19T14:20:21.523Z,5.90
2018-12-19T14:22:49.743Z,5.90
2018-12-19T14:25:17.946Z,5.90
2018-12-19T14:27:46.139Z,5.90
2018-12-19T14:30:14.318Z,5.90
2018-12-19T14:32:42.500Z,5.90
2018-12-19T14:35:10.774Z,5.90
2018-12-19T14:37:38.958Z,5.90
2018-12-19T14:40:07.281Z,5.80
2018-12-19T14:42:35.455Z,5.80
2018-12-19T14:45:03.813Z,5.70
2018-12-19T14:47:32.083Z,5.70
2018-12-19T14:52:28.439Z,5.60
2018-12-19T14:57:24.639Z,5.30
2018-12-19T14:59:52.814Z,5.60
2018-12-19T15:02:20.998Z,5.60
2018-12-19T15:04:49.195Z,5.70
2018-12-19T15:07:17.435Z,5.70
2018-12-19T15:09:45.652Z,5.70
2018-12-19T15:12:13.947Z,5.60
2018-12-19T15:14:42.206Z,5.60
2018-12-19T15:17:13.865Z,5.60
2018-12-19T15:19:40.650Z,5.60
2018-12-19T15:22:08.912Z,5.60
2018-12-19T15:24:37.164Z,5.60
2018-12-19T15:27:05.364Z,5.70
2018-12-19T15:29:33.546Z,5.60
2018-12-19T15:32:01.730Z,5.60
2018-12-19T15:34:29.977Z,5.60
2018-12-19T15:36:58.195Z,5.60
2018-12-19T15:39:26.410Z,5.60
2018-12-19T15:41:54.584Z,5.50
2018-12-19T15:44:22.811Z,5.80
2018-12-19T15:51:46.991Z,6.20
2018-12-19T15:54:15.218Z,5.70
2018-12-19T15:56:43.405Z,5.70
2018-12-19T15:59:11.650Z,5.60
2018-12-19T16:01:39.880Z,5.60
2018-12-19T16:04:08.083Z,5.40
2018-12-19T16:06:36.280Z,5.40
2018-12-19T16:09:05.560Z,5.40
2018-12-19T16:11:33.753Z,5.40
2018-12-19T16:14:02.664Z,5.40
2018-12-19T16:16:30.840Z,5.40
2018-12-19T16:18:59.028Z,5.40
2018-12-19T16:21:27.283Z,5.30
2018-12-19T16:23:55.520Z,5.30
2018-12-19T16:26:23.778Z,5.30
2018-12-19T16:28:51.950Z,5.30
2018-12-19T16:31:20.243Z,5.30
2018-12-19T16:33:48.420Z,5.20
2018-12-19T16:36:16.605Z,5.10
2018-12-19T16:38:44.851Z,5.20
2018-12-19T16:41:13.075Z,4.70
2018-12-19T16:43:41.375Z,4.80
2018-12-19T16:46:09.551Z,4.80
2018-12-19T16:51:05.713Z,4.60
2018-12-19T16:56:02.003Z,4.40
2018-12-19T16:58:30.230Z,4.70
2018-12-19T17:00:58.420Z,4.60
2018-12-19T17:03:26.678Z,4.50
2018-12-19T17:05:54.942Z,4.50
2018-12-19T17:08:23.273Z,4.40
2018-12-19T17:10:51.490Z,4.50
2018-12-19T17:13:19.747Z,4.40
2018-12-19T17:15:47.923Z,4.50
2018-12-19T17:18:16.129Z,4.40
2018-12-19T17:20:44.320Z,4.50
2018-12-19T17:23:12.575Z,4.50
2018-12-19T17:25:40.862Z,4.50
2018-12-19T17:28:09.038Z,4.50
2018-12-19T17:30:37.382Z,4.50
2018-12-19T17:33:05.578Z,4.60
2018-12-19T17:35:33.807Z,4.50
2018-12-19T17:38:02.027Z,4.50
2018-12-19T17:40:30.360Z,4.30
2018-12-19T17:42:59.554Z,4.30
2018-12-19T17:45:28.098Z,4.20
2018-12-19T17:52:52.239Z,4.20
2018-12-19T17:55:20.445Z,4.10
2018-12-19T17:57:48.644Z,4.20
2018-12-19T18:00:16.973Z,4.00
2018-12-19T18:02:45.157Z,3.90
2018-12-19T18:05:13.357Z,3.80
2018-12-19T18:07:41.552Z,3.70
2018-12-19T18:10:09.820Z,3.60
2018-12-19T18:12:38.012Z,3.60
2018-12-19T18:15:06.258Z,3.50
2018-12-19T18:17:34.440Z,3.50
2018-12-19T18:20:02.759Z,3.40
2018-12-19T18:22:30.956Z,3.40
2018-12-19T18:24:59.218Z,3.40
2018-12-19T18:27:27.462Z,3.40
2018-12-19T18:29:55.744Z,3.40
2018-12-19T18:32:23.987Z,3.30
2018-12-19T18:34:52.175Z,3.30
2018-12-19T18:37:20.462Z,3.40
2018-12-19T18:39:48.841Z,3.50
2018-12-19T18:42:17.134Z,3.90
2018-12-19T18:44:46.424Z,3.50
2018-12-19T18:47:14.674Z,3.50
2018-12-19T18:52:17.390Z,3.70
2018-12-19T18:54:45.580Z,3.50
2018-12-19T18:59:41.885Z,3.70
2018-12-19T19:02:10.217Z,3.70
2018-12-19T19:04:38.472Z,3.60
2018-12-19T19:07:06.851Z,3.60
2018-12-19T19:09:35.234Z,3.60
2018-12-19T19:12:03.539Z,3.60
2018-12-19T19:17:06.367Z,3.60
2018-12-19T19:19:34.676Z,3.60
2018-12-19T19:22:02.878Z,3.70
2018-12-19T19:24:31.060Z,3.70
2018-12-19T19:26:59.330Z,3.70
2018-12-19T19:29:27.695Z,3.70
2018-12-19T19:31:55.895Z,3.70
2018-12-19T19:34:25.175Z,3.70
2018-12-19T19:39:28.201Z,3.70
2018-12-19T19:41:56.415Z,3.70
2018-12-19T19:44:24.708Z,3.70
2018-12-19T19:46:52.998Z,3.70
2018-12-19T19:49:21.171Z,3.60
2018-12-19T19:51:49.446Z,3.60
2018-12-19T19:54:17.695Z,4.00
2018-12-19T20:04:10.038Z,3.20
2018-12-19T20:06:38.235Z,3.70
2018-12-19T20:09:08.340Z,3.70
2018-12-19T20:11:36.548Z,3.70
2018-12-19T20:14:04.846Z,3.70
2018-12-19T20:16:37.347Z,3.80
2018-12-19T20:19:05.578Z,3.80
2018-12-19T20:21:33.898Z,3.90
2018-12-19T20:24:02.162Z,3.80
2018-12-19T20:26:30.413Z,3.70
2018-12-19T20:28:58.608Z,3.60
2018-12-19T20:31:26.879Z,3.70
2018-12-19T20:33:55.157Z,3.70
2018-12-19T20:36:23.463Z,3.80
2018-12-19T20:38:51.717Z,3.80
2018-12-19T20:41:19.895Z,3.80
2018-12-19T20:43:48.109Z,3.80
2018-12-19T20:46:16.400Z,3.80
2018-12-19T20:48:44.722Z,3.90
2018-12-19T20:51:12.986Z,3.80
2018-12-19T20:53:41.225Z,3.70
2018-12-19T20:56:09.572Z,3.80
2018-12-19T21:01:05.981Z,3.80
2018-12-19T21:03:34.239Z,3.80
2018-12-19T21:06:02.448Z,3.80
2018-12-19T21:08:30.663Z,3.90
2018-12-19T21:10:58.855Z,3.80
2018-12-19T21:13:27.124Z,3.80
2018-12-19T21:15:55.407Z,3.80
2018-12-19T21:18:28.996Z,3.90
2018-12-19T21:20:57.345Z,4.00
2018-12-19T21:23:25.515Z,4.00
2018-12-19T21:25:53.700Z,4.10
2018-12-19T21:28:21.880Z,4.20
2018-12-19T21:30:50.097Z,4.20
2018-12-19T21:33:18.406Z,4.30
2018-12-19T21:35:46.648Z,4.40
2018-12-19T21:38:15.115Z,4.40
2018-12-19T21:40:43.323Z,4.50
2018-12-19T21:43:11.671Z,4.50
2018-12-19T21:45:39.938Z,4.40
2018-12-19T21:48:08.236Z,4.50
2018-12-19T21:53:04.514Z,4.50
2018-12-19T21:58:01.961Z,4.50
2018-12-19T22:00:36.848Z,4.50
2018-12-19T22:03:07.454Z,4.50
2018-12-19T22:05:38.213Z,4.40
2018-12-19T22:08:06.438Z,4.30
2018-12-19T22:10:34.817Z,4.30
2018-12-19T22:13:03.506Z,4.20
2018-12-19T22:15:31.832Z,4.20
2018-12-19T22:18:05.417Z,4.20
2018-12-19T22:20:40.422Z,4.20
2018-12-19T22:23:08.923Z,4.20
2018-12-19T22:25:37.329Z,4.30
2018-12-19T22:28:05.689Z,4.30
2018-12-19T22:30:34.043Z,4.30
2018-12-19T22:33:02.424Z,4.30
2018-12-19T22:35:30.794Z,4.40
2018-12-19T22:37:59.130Z,4.30
2018-12-19T22:40:27.436Z,4.30
2018-12-19T22:42:56.134Z,4.30
2018-12-19T22:45:24.396Z,4.20
2018-12-19T22:47:52.753Z,4.20
2018-12-19T22:50:21.070Z,4.10
2018-12-19T22:52:49.324Z,4.10
2018-12-19T22:55:17.691Z,4.10
2018-12-19T23:00:17.416Z,4.00
2018-12-19T23:02:51.658Z,4.00
2018-12-19T23:05:25.489Z,3.90
2018-12-19T23:07:53.857Z,3.90
2018-12-19T23:10:22.285Z,3.90
2018-12-19T23:12:50.722Z,3.90
2018-12-19T23:15:20.067Z,3.90
2018-12-19T23:17:48.455Z,3.90
2018-12-19T23:20:16.894Z,3.90
2018-12-19T23:22:45.169Z,3.90
2018-12-19T23:25:13.719Z,3.90
2018-12-19T23:30:10.626Z,3.80
2018-12-19T23:32:39.229Z,3.90
2018-12-19T23:35:07.993Z,3.90
2018-12-19T23:37:36.477Z,3.80
2018-12-19T23:40:05.238Z,3.80
2018-12-19T23:42:33.807Z,3.90
2018-12-19T23:45:02.279Z,3.90
2018-12-19T23:47:30.705Z,3.90
2018-12-19T23:49:59.179Z,4.00
2018-12-19T23:52:27.602Z,3.90
2018-12-19T23:54:56.052Z,3.90
